sensor_id;sensor_type;location;lat;lon;timestamp;P1;durP1;ratioP1;P2;durP2;ratioP2
20855;SDS011;63058;49.424;8.420;2022-10-23T08:46:32;7.57;;;3.80;;
20855;SDS011;63058;49.424;8.420;2022-10-23T08:49:06;5.05;;;4.57;;
20855;SDS011;63058;49.424;8.420;2022-10-23T08:51:35;9.35;;;4.75;;
20855;SDS011;63058;49.424;8.420;2022-10-23T08:54:07;7.57;;;4.40;;
20855;SDS011;63058;49.424;8.420;2022-10-23T08:56:43;7.30;;;4.13;;
20855;SDS011;63058;49.424;8.420;2022-10-23T09:02:21;4.18;;;3.28;;
20855;SDS011;63058;49.424;8.420;2022-10-23T09:04:52;4.70;;;3.58;;
20855;SDS011;63058;49.424;8.420;2022-10-23T09:07:26;7.80;;;2.90;;
20855;SDS011;63058;49.424;8.420;2022-10-23T09:16:03;4.25;;;2.75;;
20855;SDS011;63058;49.424;8.420;2022-10-23T09:19:09;4.72;;;2.25;;
20855;SDS011;63058;49.424;8.420;2022-10-23T09:21:41;2.92;;;2.40;;
20855;SDS011;63058;49.424;8.420;2022-10-23T09:24:13;3.40;;;2.00;;
20855;SDS011;63058;49.424;8.420;2022-10-23T09:26:44;3.20;;;2.22;;
20855;SDS011;63058;49.424;8.420;2022-10-23T09:31:48;2.60;;;1.83;;
20855;SDS011;63058;49.424;8.420;2022-10-23T09:34:17;3.00;;;1.50;;
20855;SDS011;63058;49.424;8.420;2022-10-23T09:36:49;1.58;;;1.27;;
20855;SDS011;63058;49.424;8.420;2022-10-23T09:39:38;1.88;;;1.20;;
20855;SDS011;63058;49.424;8.420;2022-10-23T09:42:23;1.35;;;1.02;;
20855;SDS011;63058;49.424;8.420;2022-10-23T09:44:50;4.20;;;1.13;;
20855;SDS011;63058;49.424;8.420;2022-10-23T09:47:19;4.30;;;1.75;;
20855;SDS011;63058;49.424;8.420;2022-10-23T09:49:50;3.13;;;1.30;;
20855;SDS011;63058;49.424;8.420;2022-10-23T10:02:52;2.38;;;1.30;;
20855;SDS011;63058;49.424;8.420;2022-10-23T10:05:24;1.67;;;1.17;;
20855;SDS011;63058;49.424;8.420;2022-10-23T10:07:57;2.55;;;0.80;;
20855;SDS011;63058;49.424;8.420;2022-10-23T10:10:35;2.63;;;0.98;;
20855;SDS011;63058;49.424;8.420;2022-10-23T10:13:07;2.53;;;1.10;;
20855;SDS011;63058;49.424;8.420;2022-10-23T10:15:58;1.90;;;1.00;;
20855;SDS011;63058;49.424;8.420;2022-10-23T10:19:00;1.92;;;1.08;;
20855;SDS011;63058;49.424;8.420;2022-10-23T10:21:27;2.55;;;1.40;;
20855;SDS011;63058;49.424;8.420;2022-10-23T10:24:33;3.78;;;1.33;;
20855;SDS011;63058;49.424;8.420;2022-10-23T10:27:02;1.77;;;0.90;;
20855;SDS011;63058;49.424;8.420;2022-10-23T10:45:46;1.13;;;0.95;;
20855;SDS011;63058;49.424;8.420;2022-10-23T10:55:55;2.13;;;1.02;;
20855;SDS011;63058;49.424;8.420;2022-10-23T11:01:02;3.58;;;0.90;;
20855;SDS011;63058;49.424;8.420;2022-10-23T11:03:51;4.68;;;1.05;;
20855;SDS011;63058;49.424;8.420;2022-10-23T11:06:26;1.73;;;0.80;;
20855;SDS011;63058;49.424;8.420;2022-10-23T11:08:54;1.20;;;0.75;;
20855;SDS011;63058;49.424;8.420;2022-10-23T11:11:28;3.65;;;1.20;;
20855;SDS011;63058;49.424;8.420;2022-10-23T11:14:04;1.83;;;0.90;;
20855;SDS011;63058;49.424;8.420;2022-10-23T11:16:38;4.07;;;1.25;;
20855;SDS011;63058;49.424;8.420;2022-10-23T11:19:10;1.90;;;0.70;;
20855;SDS011;63058;49.424;8.420;2022-10-23T11:21:42;1.13;;;0.80;;
20855;SDS011;63058;49.424;8.420;2022-10-23T11:35:25;2.05;;;0.82;;
20855;SDS011;63058;49.424;8.420;2022-10-23T11:38:16;2.65;;;0.90;;
20855;SDS011;63058;49.424;8.420;2022-10-23T11:40:47;5.72;;;1.02;;
20855;SDS011;63058;49.424;8.420;2022-10-23T11:43:31;3.42;;;0.98;;
20855;SDS011;63058;49.424;8.420;2022-10-23T11:46:44;1.58;;;0.85;;
20855;SDS011;63058;49.424;8.420;2022-10-23T11:48:49;0.82;;;0.70;;
20855;SDS011;63058;49.424;8.420;2022-10-23T11:51:26;0.77;;;0.63;;
20855;SDS011;63058;49.424;8.420;2022-10-23T11:54:05;0.77;;;0.60;;
20855;SDS011;63058;49.424;8.420;2022-10-23T11:57:29;2.63;;;0.80;;
20855;SDS011;63058;49.424;8.420;2022-10-23T12:02:20;3.03;;;0.80;;
20855;SDS011;63058;49.424;8.420;2022-10-23T12:05:08;2.25;;;;;
20855;SDS011;63058;49.424;8.420;2022-10-23T12:08:03;1.75;;;1.08;;
20855;SDS011;63058;49.424;8.420;2022-10-23T12:10:47;2.85;;;0.60;;
20855;SDS011;63058;49.424;8.420;2022-10-23T12:14:06;5.38;;;0.82;;
20855;SDS011;63058;49.424;8.420;2022-10-23T12:16:11;2.15;;;0.77;;
20855;SDS011;63058;49.424;8.420;2022-10-23T12:18:44;5.45;;;0.80;;
20855;SDS011;63058;49.424;8.420;2022-10-23T12:21:14;6.55;;;0.90;;
20855;SDS011;63058;49.424;8.420;2022-10-23T12:24:03;1.80;;;0.70;;
20855;SDS011;63058;49.424;8.420;2022-10-23T12:26:41;1.02;;;0.70;;
20855;SDS011;63058;49.424;8.420;2022-10-23T12:38:18;1.70;;;0.70;;
20855;SDS011;63058;49.424;8.420;2022-10-23T12:40:52;1.98;;;0.73;;
20855;SDS011;63058;49.424;8.420;2022-10-23T12:43:28;1.52;;;0.70;;
20855;SDS011;63058;49.424;8.420;2022-10-23T12:46:02;1.25;;;0.60;;
20855;SDS011;63058;49.424;8.420;2022-10-23T12:48:47;2.05;;;0.50;;
20855;SDS011;63058;49.424;8.420;2022-10-23T12:54:14;1.67;;;0.60;;
20855;SDS011;63058;49.424;8.420;2022-10-23T12:56:41;1.20;;;0.50;;
20855;SDS011;63058;49.424;8.420;2022-10-23T12:59:18;0.73;;;0.60;;
20855;SDS011;63058;49.424;8.420;2022-10-23T13:01:47;3.88;;;0.52;;
20855;SDS011;63058;49.424;8.420;2022-10-23T13:04:17;0.75;;;0.50;;
20855;SDS011;63058;49.424;8.420;2022-10-23T13:06:49;1.00;;;0.70;;
20855;SDS011;63058;49.424;8.420;2022-10-23T13:09:23;0.70;;;0.68;;
20855;SDS011;63058;49.424;8.420;2022-10-23T13:11:59;1.73;;;0.40;;
20855;SDS011;63058;49.424;8.420;2022-10-23T13:14:30;1.30;;;0.70;;
20855;SDS011;63058;49.424;8.420;2022-10-23T13:17:02;0.95;;;0.70;;
20855;SDS011;63058;49.424;8.420;2022-10-23T13:19:29;1.02;;;0.63;;
20855;SDS011;63058;49.424;8.420;2022-10-23T13:21:56;0.52;;;0.40;;
20855;SDS011;63058;49.424;8.420;2022-10-23T13:24:24;1.33;;;0.50;;
20855;SDS011;63058;49.424;8.420;2022-10-23T13:26:51;1.02;;;0.63;;
20855;SDS011;63058;49.424;8.420;2022-10-23T13:29:30;0.80;;;0.60;;
20855;SDS011;63058;49.424;8.420;2022-10-23T13:32:10;1.60;;;0.63;;
20855;SDS011;63058;49.424;8.420;2022-10-23T13:34:49;1.20;;;0.60;;
20855;SDS011;63058;49.424;8.420;2022-10-23T13:40:02;0.68;;;0.60;;
20855;SDS011;63058;49.424;8.420;2022-10-23T13:42:31;1.08;;;0.80;;
20855;SDS011;63058;49.424;8.420;2022-10-23T13:44:57;1.00;;;0.60;;
20855;SDS011;63058;49.424;8.420;2022-10-23T13:47:23;8.48;;;0.85;;
20855;SDS011;63058;49.424;8.420;2022-10-23T13:49:48;1.38;;;0.65;;
20855;SDS011;63058;49.424;8.420;2022-10-23T13:52:15;4.10;;;0.90;;
20855;SDS011;63058;49.424;8.420;2022-10-23T13:54:47;1.05;;;0.65;;
20855;SDS011;63058;49.424;8.420;2022-10-23T13:58:23;0.90;;;0.50;;
20855;SDS011;63058;49.424;8.420;2022-10-23T14:04:24;0.60;;;0.50;;
20855;SDS011;63058;49.424;8.420;2022-10-23T14:06:50;4.10;;;0.60;;
20855;SDS011;63058;49.424;8.420;2022-10-23T14:09:22;2.47;;;0.60;;
20855;SDS011;63058;49.424;8.420;2022-10-23T14:11:48;3.10;;;0.60;;
20855;SDS011;63058;49.424;8.420;2022-10-23T14:14:16;0.63;;;0.50;;
20855;SDS011;63058;49.424;8.420;2022-10-23T14:16:42;0.95;;;0.60;;
20855;SDS011;63058;49.424;8.420;2022-10-23T14:19:08;1.17;;;0.50;;
20855;SDS011;63058;49.424;8.420;2022-10-23T14:21:40;1.45;;;0.65;;
20855;SDS011;63058;49.424;8.420;2022-10-23T14:24:06;3.40;;;0.90;;
20855;SDS011;63058;49.424;8.420;2022-10-23T14:26:32;1.92;;;0.50;;
20855;SDS011;63058;49.424;8.420;2022-10-23T14:28:58;0.73;;;0.60;;
20855;SDS011;63058;49.424;8.420;2022-10-23T14:31:24;3.13;;;0.60;;
20855;SDS011;63058;49.424;8.420;2022-10-23T14:33:54;1.23;;;0.50;;
20855;SDS011;63058;49.424;8.420;2022-10-23T14:36:22;2.05;;;0.73;;
20855;SDS011;63058;49.424;8.420;2022-10-23T14:38:49;1.05;;;0.68;;
20855;SDS011;63058;49.424;8.420;2022-10-23T14:41:18;2.42;;;0.65;;
20855;SDS011;63058;49.424;8.420;2022-10-23T14:43:43;4.80;;;0.60;;
20855;SDS011;63058;49.424;8.420;2022-10-23T14:46:10;2.60;;;0.70;;
20855;SDS011;63058;49.424;8.420;2022-10-23T14:48:37;1.20;;;0.95;;
20855;SDS011;63058;49.424;8.420;2022-10-23T14:51:06;5.00;;;1.67;;
20855;SDS011;63058;49.424;8.420;2022-10-23T14:53:43;5.15;;;2.97;;
20855;SDS011;63058;49.424;8.420;2022-10-23T14:56:09;7.22;;;3.42;;
20855;SDS011;63058;49.424;8.420;2022-10-23T14:58:34;6.93;;;4.18;;
20855;SDS011;63058;49.424;8.420;2022-10-23T15:01:00;4.32;;;2.88;;
20855;SDS011;63058;49.424;8.420;2022-10-23T15:03:26;3.50;;;1.80;;
20855;SDS011;63058;49.424;8.420;2022-10-23T15:05:52;3.03;;;1.20;;
20855;SDS011;63058;49.424;8.420;2022-10-23T15:08:19;1.63;;;1.05;;
20855;SDS011;63058;49.424;8.420;2022-10-23T15:10:45;3.80;;;0.98;;
20855;SDS011;63058;49.424;8.420;2022-10-23T15:13:11;3.65;;;0.80;;
20855;SDS011;63058;49.424;8.420;2022-10-23T15:15:37;1.40;;;0.80;;
20855;SDS011;63058;49.424;8.420;2022-10-23T15:18:03;2.67;;;0.80;;
20855;SDS011;63058;49.424;8.420;2022-10-23T15:20:29;0.90;;;0.70;;
20855;SDS011;63058;49.424;8.420;2022-10-23T15:22:55;1.85;;;0.77;;
20855;SDS011;63058;49.424;8.420;2022-10-23T15:25:21;1.45;;;0.90;;
20855;SDS011;63058;49.424;8.420;2022-10-23T15:27:46;1.63;;;0.80;;
20855;SDS011;63058;49.424;8.420;2022-10-23T15:30:12;1.30;;;0.90;;
20855;SDS011;63058;49.424;8.420;2022-10-23T15:32:38;1.15;;;0.73;;
20855;SDS011;63058;49.424;8.420;2022-10-23T15:35:05;1.33;;;0.90;;
20855;SDS011;63058;49.424;8.420;2022-10-23T15:37:31;3.17;;;1.10;;
20855;SDS011;63058;49.424;8.420;2022-10-23T15:39:57;1.10;;;0.90;;
20855;SDS011;63058;49.424;8.420;2022-10-23T15:42:23;1.23;;;0.73;;
20855;SDS011;63058;49.424;8.420;2022-10-23T15:44:48;2.72;;;0.90;;
20855;SDS011;63058;49.424;8.420;2022-10-23T15:47:14;1.00;;;0.90;;
20855;SDS011;63058;49.424;8.420;2022-10-23T15:49:40;1.92;;;0.90;;
20855;SDS011;63058;49.424;8.420;2022-10-23T15:52:06;1.52;;;1.10;;
20855;SDS011;63058;49.424;8.420;2022-10-23T15:54:33;2.45;;;1.17;;
20855;SDS011;63058;49.424;8.420;2022-10-23T15:56:59;4.43;;;1.20;;
20855;SDS011;63058;49.424;8.420;2022-10-23T15:59:25;1.38;;;0.90;;
20855;SDS011;63058;49.424;8.420;2022-10-23T16:01:52;1.42;;;1.08;;
20855;SDS011;63058;49.424;8.420;2022-10-23T16:04:19;4.80;;;1.38;;
20855;SDS011;63058;49.424;8.420;2022-10-23T16:06:45;3.63;;;1.30;;
20855;SDS011;63058;49.424;8.420;2022-10-23T16:09:12;1.80;;;1.20;;
20855;SDS011;63058;49.424;8.420;2022-10-23T16:11:38;2.20;;;1.30;;
20855;SDS011;63058;49.424;8.420;2022-10-23T16:14:05;2.40;;;1.35;;
20855;SDS011;63058;49.424;8.420;2022-10-23T16:16:32;2.63;;;1.52;;
20855;SDS011;63058;49.424;8.420;2022-10-23T16:18:59;2.30;;;1.60;;
20855;SDS011;63058;49.424;8.420;2022-10-23T16:21:26;10.10;;;2.05;;
20855;SDS011;63058;49.424;8.420;2022-10-23T16:23:55;2.90;;;1.73;;
20855;SDS011;63058;49.424;8.420;2022-10-23T16:26:22;3.63;;;2.47;;
20855;SDS011;63058;49.424;8.420;2022-10-23T16:28:52;2.85;;;1.95;;
20855;SDS011;63058;49.424;8.420;2022-10-23T16:31:19;6.70;;;2.22;;
20855;SDS011;63058;49.424;8.420;2022-10-23T16:33:47;3.50;;;2.58;;
20855;SDS011;63058;49.424;8.420;2022-10-23T16:36:14;14.63;;;7.80;;
20855;SDS011;63058;49.424;8.420;2022-10-23T16:38:39;11.10;;;6.53;;
20855;SDS011;63058;49.424;8.420;2022-10-23T16:41:05;11.35;;;7.20;;
20855;SDS011;63058;49.424;8.420;2022-10-23T16:43:31;12.02;;;6.93;;
20855;SDS011;63058;49.424;8.420;2022-10-23T16:48:34;11.48;;;6.70;;
20855;SDS011;63058;49.424;8.420;2022-10-23T16:51:03;9.85;;;6.00;;
20855;SDS011;63058;49.424;8.420;2022-10-23T16:53:32;9.20;;;5.03;;
20855;SDS011;63058;49.424;8.420;2022-10-23T16:55:58;7.65;;;4.65;;
20855;SDS011;63058;49.424;8.420;2022-10-23T16:58:24;6.13;;;3.95;;
20855;SDS011;63058;49.424;8.420;2022-10-23T17:00:56;5.10;;;3.42;;
20855;SDS011;63058;49.424;8.420;2022-10-23T17:03:32;4.80;;;2.50;;
20855;SDS011;63058;49.424;8.420;2022-10-23T17:06:00;4.30;;;2.33;;
20855;SDS011;63058;49.424;8.420;2022-10-23T17:08:27;2.67;;;1.85;;
20855;SDS011;63058;49.424;8.420;2022-10-23T17:13:32;5.13;;;1.73;;
20855;SDS011;63058;49.424;8.420;2022-10-23T17:16:06;2.53;;;1.80;;
20855;SDS011;63058;49.424;8.420;2022-10-23T17:18:34;4.03;;;1.88;;
20855;SDS011;63058;49.424;8.420;2022-10-23T17:21:00;2.65;;;1.98;;
20855;SDS011;63058;49.424;8.420;2022-10-23T17:23:26;3.55;;;2.40;;
20855;SDS011;63058;49.424;8.420;2022-10-23T17:25:53;2.65;;;1.77;;
20855;SDS011;63058;49.424;8.420;2022-10-23T17:28:19;5.18;;;2.38;;
20855;SDS011;63058;49.424;8.420;2022-10-23T17:30:44;2.25;;;2.00;;
20855;SDS011;63058;49.424;8.420;2022-10-23T17:33:10;4.30;;;1.90;;
20855;SDS011;63058;49.424;8.420;2022-10-23T17:35:36;3.10;;;1.85;;
20855;SDS011;63058;49.424;8.420;2022-10-23T17:38:03;3.72;;;1.67;;
20855;SDS011;63058;49.424;8.420;2022-10-23T17:40:29;4.28;;;1.80;;
20855;SDS011;63058;49.424;8.420;2022-10-23T17:42:58;3.58;;;2.15;;
20855;SDS011;63058;49.424;8.420;2022-10-23T17:45:35;3.72;;;2.00;;
20855;SDS011;63058;49.424;8.420;2022-10-23T17:48:00;4.25;;;1.60;;
20855;SDS011;63058;49.424;8.420;2022-10-23T17:50:30;2.63;;;1.55;;
20855;SDS011;63058;49.424;8.420;2022-10-23T17:53:00;2.63;;;1.63;;
20855;SDS011;63058;49.424;8.420;2022-10-23T17:55:25;4.20;;;1.65;;
20855;SDS011;63058;49.424;8.420;2022-10-23T17:57:51;2.08;;;1.42;;
20855;SDS011;63058;49.424;8.420;2022-10-23T18:00:16;1.92;;;1.63;;
20855;SDS011;63058;49.424;8.420;2022-10-23T18:02:42;9.35;;;2.10;;
20855;SDS011;63058;49.424;8.420;2022-10-23T18:05:08;2.50;;;1.70;;
20855;SDS011;63058;49.424;8.420;2022-10-23T18:07:35;2.80;;;1.80;;
20855;SDS011;63058;49.424;8.420;2022-10-23T18:10:02;5.40;;;1.60;;
20855;SDS011;63058;49.424;8.420;2022-10-23T18:12:28;3.25;;;1.60;;
20855;SDS011;63058;49.424;8.420;2022-10-23T18:14:54;2.38;;;1.40;;
20855;SDS011;63058;49.424;8.420;2022-10-23T18:17:20;1.98;;;1.50;;
20855;SDS011;63058;49.424;8.420;2022-10-23T18:19:48;3.03;;;1.80;;
20855;SDS011;63058;49.424;8.420;2022-10-23T18:22:15;2.88;;;1.77;;
20855;SDS011;63058;49.424;8.420;2022-10-23T18:24:41;2.40;;;1.60;;
20855;SDS011;63058;49.424;8.420;2022-10-23T18:27:06;2.65;;;1.65;;
20855;SDS011;63058;49.424;8.420;2022-10-23T18:29:32;4.32;;;1.65;;
20855;SDS011;63058;49.424;8.420;2022-10-23T18:31:58;4.20;;;1.90;;
20855;SDS011;63058;49.424;8.420;2022-10-23T18:34:23;7.63;;;2.20;;
20855;SDS011;63058;49.424;8.420;2022-10-23T18:36:50;3.00;;;1.80;;
20855;SDS011;63058;49.424;8.420;2022-10-23T18:39:17;1.75;;;1.55;;
20855;SDS011;63058;49.424;8.420;2022-10-23T18:41:48;6.20;;;2.13;;
20855;SDS011;63058;49.424;8.420;2022-10-23T18:44:16;5.20;;;1.73;;
20855;SDS011;63058;49.424;8.420;2022-10-23T18:46:44;3.80;;;1.75;;
20855;SDS011;63058;49.424;8.420;2022-10-23T18:49:10;2.67;;;1.60;;
20855;SDS011;63058;49.424;8.420;2022-10-23T18:51:37;7.22;;;2.17;;
20855;SDS011;63058;49.424;8.420;2022-10-23T18:54:05;5.22;;;2.15;;
20855;SDS011;63058;49.424;8.420;2022-10-23T18:56:33;5.28;;;2.00;;
20855;SDS011;63058;49.424;8.420;2022-10-23T18:59:00;3.30;;;2.33;;
20855;SDS011;63058;49.424;8.420;2022-10-23T19:01:28;3.47;;;2.17;;
20855;SDS011;63058;49.424;8.420;2022-10-23T19:03:55;3.67;;;2.22;;
20855;SDS011;63058;49.424;8.420;2022-10-23T19:06:23;3.63;;;2.00;;
20855;SDS011;63058;49.424;8.420;2022-10-23T19:08:49;4.95;;;1.85;;
20855;SDS011;63058;49.424;8.420;2022-10-23T19:11:15;7.68;;;2.20;;
20855;SDS011;63058;49.424;8.420;2022-10-23T19:13:43;4.32;;;2.42;;
20855;SDS011;63058;49.424;8.420;2022-10-23T19:16:09;5.53;;;2.17;;
20855;SDS011;63058;49.424;8.420;2022-10-23T19:18:41;4.93;;;2.65;;
20855;SDS011;63058;49.424;8.420;2022-10-23T19:21:10;3.97;;;2.05;;
20855;SDS011;63058;49.424;8.420;2022-10-23T19:23:37;4.25;;;2.30;;
20855;SDS011;63058;49.424;8.420;2022-10-23T19:26:06;4.97;;;2.38;;
20855;SDS011;63058;49.424;8.420;2022-10-23T19:28:35;3.17;;;2.28;;
20855;SDS011;63058;49.424;8.420;2022-10-23T19:31:01;5.60;;;2.40;;
20855;SDS011;63058;49.424;8.420;2022-10-23T19:33:27;2.58;;;2.00;;
20855;SDS011;63058;49.424;8.420;2022-10-23T19:35:53;4.38;;;1.95;;
20855;SDS011;63058;49.424;8.420;2022-10-23T19:38:18;3.10;;;1.83;;
20855;SDS011;63058;49.424;8.420;2022-10-23T19:40:44;4.28;;;2.15;;
20855;SDS011;63058;49.424;8.420;2022-10-23T19:43:10;6.22;;;2.50;;
20855;SDS011;63058;49.424;8.420;2022-10-23T19:45:35;4.05;;;2.65;;
20855;SDS011;63058;49.424;8.420;2022-10-23T19:48:02;2.90;;;2.00;;
20855;SDS011;63058;49.424;8.420;2022-10-23T19:50:29;5.72;;;1.98;;
20855;SDS011;63058;49.424;8.420;2022-10-23T19:52:54;8.23;;;2.60;;
20855;SDS011;63058;49.424;8.420;2022-10-23T19:55:20;4.47;;;2.42;;
20855;SDS011;63058;49.424;8.420;2022-10-23T19:57:46;5.20;;;2.03;;
20855;SDS011;63058;49.424;8.420;2022-10-23T20:00:11;5.45;;;2.60;;
20855;SDS011;63058;49.424;8.420;2022-10-23T20:02:37;5.43;;;2.28;;
20855;SDS011;63058;49.424;8.420;2022-10-23T20:05:04;6.57;;;2.10;;
20855;SDS011;63058;49.424;8.420;2022-10-23T20:07:30;4.15;;;2.40;;
20855;SDS011;63058;49.424;8.420;2022-10-23T20:09:56;5.22;;;2.15;;
20855;SDS011;63058;49.424;8.420;2022-10-23T20:12:22;6.72;;;2.45;;
20855;SDS011;63058;49.424;8.420;2022-10-23T20:14:48;5.15;;;2.30;;
20855;SDS011;63058;49.424;8.420;2022-10-23T20:17:14;3.45;;;2.00;;
20855;SDS011;63058;49.424;8.420;2022-10-23T20:19:40;5.38;;;1.98;;
20855;SDS011;63058;49.424;8.420;2022-10-23T20:22:06;6.53;;;2.15;;
20855;SDS011;63058;49.424;8.420;2022-10-23T20:24:32;5.32;;;2.05;;
20855;SDS011;63058;49.424;8.420;2022-10-23T20:26:57;4.85;;;2.25;;
20855;SDS011;63058;49.424;8.420;2022-10-23T20:29:23;9.50;;;2.25;;
20855;SDS011;63058;49.424;8.420;2022-10-23T20:31:49;4.30;;;2.10;;
20855;SDS011;63058;49.424;8.420;2022-10-23T20:34:15;4.55;;;2.60;;
20855;SDS011;63058;49.424;8.420;2022-10-23T20:36:43;5.93;;;2.50;;
20855;SDS011;63058;49.424;8.420;2022-10-23T20:39:12;5.50;;;2.80;;
20855;SDS011;63058;49.424;8.420;2022-10-23T20:41:41;6.70;;;2.38;;
20855;SDS011;63058;49.424;8.420;2022-10-23T20:44:09;3.78;;;2.20;;
20855;SDS011;63058;49.424;8.420;2022-10-23T20:46:36;6.75;;;2.65;;
20855;SDS011;63058;49.424;8.420;2022-10-23T20:49:02;5.72;;;2.40;;
20855;SDS011;63058;49.424;8.420;2022-10-23T20:51:28;6.50;;;2.80;;
20855;SDS011;63058;49.424;8.420;2022-10-23T20:53:53;8.70;;;2.38;;
20855;SDS011;63058;49.424;8.420;2022-10-23T20:56:21;4.97;;;2.50;;
20855;SDS011;63058;49.424;8.420;2022-10-23T21:01:32;4.82;;;2.17;;
20855;SDS011;63058;49.424;8.420;2022-10-23T21:04:03;3.70;;;2.05;;
20855;SDS011;63058;49.424;8.420;2022-10-23T21:06:36;5.00;;;2.17;;
20855;SDS011;63058;49.424;8.420;2022-10-23T21:09:08;5.47;;;2.00;;
20855;SDS011;63058;49.424;8.420;2022-10-23T21:11:43;4.13;;;2.00;;
20855;SDS011;63058;49.424;8.420;2022-10-23T21:14:09;7.25;;;2.50;;
20855;SDS011;63058;49.424;8.420;2022-10-23T21:16:38;6.20;;;2.42;;
20855;SDS011;63058;49.424;8.420;2022-10-23T21:19:06;4.22;;;2.08;;
20855;SDS011;63058;49.424;8.420;2022-10-23T21:21:35;6.72;;;2.60;;
20855;SDS011;63058;49.424;8.420;2022-10-23T21:24:03;5.40;;;2.38;;
20855;SDS011;63058;49.424;8.420;2022-10-23T21:26:31;4.97;;;2.00;;
20855;SDS011;63058;49.424;8.420;2022-10-23T21:29:00;4.45;;;1.70;;
20855;SDS011;63058;49.424;8.420;2022-10-23T21:31:40;5.22;;;1.73;;
20855;SDS011;63058;49.424;8.420;2022-10-23T21:34:08;5.65;;;1.80;;
20855;SDS011;63058;49.424;8.420;2022-10-23T21:36:48;3.55;;;1.63;;
20855;SDS011;63058;49.424;8.420;2022-10-23T21:39:17;3.28;;;1.60;;
20855;SDS011;63058;49.424;8.420;2022-10-23T21:41:43;5.28;;;1.75;;
20855;SDS011;63058;49.424;8.420;2022-10-23T21:44:18;5.15;;;2.00;;
20855;SDS011;63058;49.424;8.420;2022-10-23T21:46:54;3.63;;;1.75;;
20855;SDS011;63058;49.424;8.420;2022-10-23T21:49:32;3.45;;;1.73;;
20855;SDS011;63058;49.424;8.420;2022-10-23T21:52:02;2.65;;;1.50;;
20855;SDS011;63058;49.424;8.420;2022-10-23T21:54:33;4.15;;;1.70;;
20855;SDS011;63058;49.424;8.420;2022-10-23T21:57:10;3.35;;;1.70;;
20855;SDS011;63058;49.424;8.420;2022-10-23T21:59:50;4.22;;;2.03;;
20855;SDS011;63058;49.424;8.420;2022-10-23T22:02:24;2.67;;;1.63;;
20855;SDS011;63058;49.424;8.420;2022-10-23T22:05:02;4.88;;;2.03;;
20855;SDS011;63058;49.424;8.420;2022-10-23T22:07:30;3.63;;;1.80;;
20855;SDS011;63058;49.424;8.420;2022-10-23T22:09:59;6.50;;;1.95;;
20855;SDS011;63058;49.424;8.420;2022-10-23T22:12:25;5.50;;;1.80;;
20855;SDS011;63058;49.424;8.420;2022-10-23T22:15:26;3.15;;;1.70;;
20855;SDS011;63058;49.424;8.420;2022-10-23T22:17:54;4.20;;;1.88;;
20855;SDS011;63058;49.424;8.420;2022-10-23T22:20:32;3.15;;;1.35;;
20855;SDS011;63058;49.424;8.420;2022-10-23T22:23:03;3.85;;;1.65;;
20855;SDS011;63058;49.424;8.420;2022-10-23T22:25:29;3.45;;;1.80;;
20855;SDS011;63058;49.424;8.420;2022-10-23T22:28:00;5.78;;;1.80;;
20855;SDS011;63058;49.424;8.420;2022-10-23T22:30:39;4.35;;;1.70;;
20855;SDS011;63058;49.424;8.420;2022-10-23T22:33:08;5.00;;;1.52;;
20855;SDS011;63058;49.424;8.420;2022-10-23T22:35:39;4.75;;;1.30;;
20855;SDS011;63058;49.424;8.420;2022-10-23T22:40:52;3.08;;;1.30;;
20855;SDS011;63058;49.424;8.420;2022-10-23T22:43:27;4.03;;;1.50;;
20855;SDS011;63058;49.424;8.420;2022-10-23T22:46:06;4.90;;;2.17;;
20855;SDS011;63058;49.424;8.420;2022-10-23T22:48:35;3.38;;;1.92;;
20855;SDS011;63058;49.424;8.420;2022-10-23T22:51:02;3.30;;;1.73;;
20855;SDS011;63058;49.424;8.420;2022-10-23T22:53:44;4.45;;;1.52;;
20855;SDS011;63058;49.424;8.420;2022-10-23T22:56:14;4.38;;;1.80;;
20855;SDS011;63058;49.424;8.420;2022-10-23T22:58:54;4.78;;;1.77;;
20855;SDS011;63058;49.424;8.420;2022-10-23T23:01:35;5.45;;;2.13;;
20855;SDS011;63058;49.424;8.420;2022-10-23T23:07:12;6.55;;;1.90;;
20855;SDS011;63058;49.424;8.420;2022-10-23T23:09:41;5.53;;;1.70;;
20855;SDS011;63058;49.424;8.420;2022-10-23T23:12:21;4.43;;;1.60;;
20855;SDS011;63058;49.424;8.420;2022-10-23T23:14:49;3.08;;;1.63;;
20855;SDS011;63058;49.424;8.420;2022-10-23T23:17:26;4.38;;;1.90;;
20855;SDS011;63058;49.424;8.420;2022-10-23T23:20:00;1.80;;;1.17;;
20855;SDS011;63058;49.424;8.420;2022-10-23T23:22:27;3.83;;;1.63;;
20855;SDS011;63058;49.424;8.420;2022-10-23T23:24:58;4.32;;;1.60;;
20855;SDS011;63058;49.424;8.420;2022-10-23T23:27:24;3.17;;;1.67;;
20855;SDS011;63058;49.424;8.420;2022-10-23T23:29:57;3.72;;;1.92;;
20855;SDS011;63058;49.424;8.420;2022-10-23T23:32:35;5.20;;;1.77;;
20855;SDS011;63058;49.424;8.420;2022-10-23T23:35:13;4.72;;;1.92;;
20855;SDS011;63058;49.424;8.420;2022-10-23T23:38:02;3.10;;;1.55;;
20855;SDS011;63058;49.424;8.420;2022-10-23T23:40:37;3.75;;;2.03;;
20855;SDS011;63058;49.424;8.420;2022-10-23T23:43:26;4.80;;;1.70;;
20855;SDS011;63058;49.424;8.420;2022-10-23T23:46:00;4.28;;;1.90;;
20855;SDS011;63058;49.424;8.420;2022-10-23T23:48:31;2.75;;;1.60;;
20855;SDS011;63058;49.424;8.420;2022-10-23T23:50:57;4.03;;;1.52;;
20855;SDS011;63058;49.424;8.420;2022-10-23T23:53:46;6.00;;;1.85;;
20855;SDS011;63058;49.424;8.420;2022-10-23T23:56:18;4.03;;;1.77;;
20855;SDS011;63058;49.424;8.420;2022-10-23T23:58:45;4.15;;;1.58;;
